createdAt,value
2023-04-18T00:00:02.010Z,7.3
2023-04-18T00:30:23.366Z,8.8
2023-04-18T01:00:09.052Z,8.5
2023-04-18T01:30:09.580Z,8.7
2023-04-18T02:00:09.455Z,8.7
2023-04-18T02:30:17.691Z,8
2023-04-18T03:30:26.920Z,8.3
2023-04-18T04:00:19.936Z,8.3
2023-04-18T04:30:13.460Z,8.4
2023-04-18T05:00:12.026Z,8.2
2023-04-18T05:30:27.118Z,8.1
2023-04-18T06:00:20.022Z,8.3
2023-04-18T06:30:04.767Z,8.2
2023-04-18T07:00:14.009Z,8.3
2023-04-18T07:30:14.787Z,8
2023-04-18T08:00:24.139Z,8.4
2023-04-18T08:30:16.338Z,8.5
2023-04-18T09:00:02.216Z,9.1
2023-04-18T09:30:17.729Z,9.3
2023-04-18T10:00:10.048Z,9.9
2023-04-18T10:30:25.599Z,10.4
2023-04-18T11:00:17.526Z,11.4
2023-04-18T11:30:02.757Z,13.2
2023-04-18T12:00:18.135Z,14.6
2023-04-18T13:00:05.690Z,15.6
2023-04-18T13:30:05.319Z,16.6
2023-04-18T14:00:28.242Z,16.5
2023-04-18T14:30:28.432Z,17.2
2023-04-18T15:00:20.841Z,17.3
2023-04-18T15:30:06.522Z,17.8
2023-04-18T16:00:28.038Z,15.8
2023-04-18T16:30:28.387Z,14.7
2023-04-18T17:00:19.846Z,14.2
2023-04-18T17:30:00.587Z,13.6
2023-04-18T18:00:16.465Z,13
2023-04-18T18:30:07.892Z,12.2
2023-04-18T19:00:24.422Z,11.7
2023-04-18T19:30:15.785Z,11.4
2023-04-18T20:00:24.587Z,11.7
2023-04-18T20:30:16.705Z,11.4
2023-04-18T21:00:01.851Z,10.7
2023-04-18T21:30:25.624Z,10.9
2023-04-18T22:00:21.398Z,11
2023-04-18T22:30:13.540Z,11.2
2023-04-18T23:00:29.021Z,10.9
2023-04-18T23:30:14.991Z,10.7
